Sandy Creek, TX

2:48 PM CDT on September 02, 2015 (GMT -0500)
east cameron | | Change Station
CLOSE
Current Station
Personal Weather Station
Location: Cameron, TX
Elevation: 404 ft
Nearby Weather Stations

Elev 404 ft 30.86 °N, 96.96 °W | Updated 11 minutes ago

Partly Cloudy
Partly Cloudy
93.2 °F
Feels Like 98 °F
N
2.2
Wind Variable Wind from ENE

Today
High -- | Low -- °F
--% Chance of Precip.
Yesterday
High -- | Low -- °F
Precip. -- in
7:04 AM 7:49 PM
Waning Gibbous, 78% visible
Pressure 29.99 in
Visibility 10.0 miles
Clouds Scattered Clouds 5000 ft
Heat Index 98 °F
Dew Point 69 °F
Humidity 45%
Rainfall 0.00 in
Snow Depth Not available.
UV 8 out of 12
Pollen 6.80 out of 12
Air Quality Not available.
Flu Activity Not available.
METAR KT35 021935Z AUTO 11004KT 10SM SCT050 32/19 A2999 RMK AO2 T03230193
Pressure 29.99 in
Visibility 10.0 miles
Clouds Scattered Clouds 5000 ft
Heat Index 98 °F
Dew Point 69 °F
Humidity 45%
Rainfall 0.00 in
Snow Depth Not available.
UV 8 out of 12
Pollen 6.80 out of 12
Air Quality Not available.
Flu Activity Not available.
METAR KT35 021935Z AUTO 11004KT 10SM SCT050 32/19 A2999 RMK AO2 T03230193
Nowcast | as of 1:49 PM CDT on September 2, 2015

Isolated showers and a few thunderstorms will develop this afternoon southeast of a line from Lampasas to Waxahachie to Sulphur Springs. Cloud to ground lightning...brief heavy rain and wind gusts over 35 mph will accompany some of the storms as they move north at 15 mph.

×

10-Day Weather Forecast

×

Almanac

Astronomy

Sep. 02, 2015 Rise Set
Actual Time
Civil Twilight
Nautical Twilight
Astronomical Twilight
Moon
Length of Visible Light
Length of Day
Tomorrow will be .
, % of the Moon is Illuminated

Today's Extremes

State Highs State Lows

Community

WunderPhotos

Upload Photos

1,851,801 photos uploaded!

WunderBlogs® & News

Nearby

Air Quality

  Air Quality AQ Index Pollutant
Not available.

Snow Depth

Station Depth Elevation

Earthquake Activity

City Distance Mag. Time & Date
Minimum magnitude displayed is 2.5.

Coastal Water Temperatures

Place Temperature

Stations

Nearby Weather Stations

Station Location Temp. Windchill Dew Point Humidity Wind Precip. Elev Updated Type